^^
Grace C. Lehan Memorial Weather Station Historical Data
Daily Summary for July 25, 2021 Units:  Metric    English   Both
Daily Weekly Monthly Yearly
  High: Low: Average:
Temperature: 26.6 °C 19.6 °C 22.4 °C
Dew Point: 22.7 °C 17.7 °C 20.1 °C
Humidity: 92.1% 78% 87%
Wind Speed: 3.1km/h 0km/h 0.2km/h
Wind Gust: 17.7km/h - -
Wind- - SW
Pressure: 1015.1 hPa 1008.7 hPa -
Precipitation: 2.54 mm    
 
 
Tabular Data for July 25, 2021
Time Temperature Dew Point Pressure Wind Wind Speed Wind Gust Humidity Rainfall Rate (Hourly) solar
00:04 21.6 °C 17.9 °C 1015.1 hPa Calm     80% 0 mm 0 W/m2
00:09 21.5 °C 17.9 °C 1015.1 hPa Calm     80% 0 mm 0 W/m2
00:14 21.5 °C 17.9 °C 1015.1 hPa Calm     80.2% 0 mm 0 W/m2
00:19 21.4 °C 17.8 °C 1015.1 hPa Calm     80% 0 mm 0 W/m2
00:24 21.3 °C 17.8 °C 1015.1 hPa Calm     80.3% 0 mm 0 W/m2
00:29 21.3 °C 17.9 °C 1015.1 hPa Calm     81% 0 mm 0 W/m2
00:34 21.3 °C 17.9 °C 1015.1 hPa Calm     81% 0 mm 0 W/m2
00:39 21.2 °C 17.8 °C 1015.1 hPa Calm     81% 0 mm 0 W/m2
00:44 21.1 °C 17.9 °C 1015.1 hPa Calm     81.8% 0 mm 0 W/m2
00:49 21.1 °C 17.8 °C 1015.1 hPa Calm     82% 0 mm 0 W/m2
00:54 20.9 °C 17.8 °C 1015.1 hPa Calm     82% 0 mm 0 W/m2
00:59 20.9 °C 17.7 °C 1015.1 hPa Calm     82% 0 mm 0 W/m2
01:04 20.8 °C 17.7 °C 1015.1 hPa Calm     82% 0 mm 0 W/m2
01:09 20.8 °C 17.8 °C 1015.1 hPa Calm     82.9% 0 mm 0 W/m2
01:14 20.8 °C 17.8 °C 1015.1 hPa Calm     83% 0 mm 0 W/m2
01:19 20.8 °C 17.8 °C 1015.1 hPa Calm     83% 0 mm 0 W/m2
01:24 20.7 °C 17.9 °C 1015.1 hPa Calm     84% 0 mm 0 W/m2
01:29 20.7 °C 17.9 °C 1015.1 hPa Calm     84% 0 mm 0 W/m2
01:34 20.7 °C 17.9 °C 1015.1 hPa Calm     84% 0 mm 0 W/m2
01:39 20.6 °C 17.9 °C 1015.1 hPa Calm     84.2% 0 mm 0 W/m2
01:44 20.6 °C 18 °C 1015.1 hPa Calm     85% 0 mm 0 W/m2
01:49 20.6 °C 18 °C 1015.1 hPa Calm     85% 0 mm 0 W/m2
01:54 20.6 °C 18.1 °C 1014.8 hPa Calm     85.7% 0 mm 0 W/m2
01:59 20.7 °C 18.2 °C 1014.8 hPa Calm     86% 0 mm 0 W/m2
02:04 20.7 °C 18.2 °C 1014.8 hPa Calm     86% 0 mm 0 W/m2
02:09 20.7 °C 18.4 °C 1014.8 hPa Calm     86.9% 0 mm 0 W/m2
02:14 20.7 °C 18.5 °C 1014.8 hPa Calm     87% 0 mm 0 W/m2
02:19 20.8 °C 18.5 °C 1014.4 hPa Calm     87% 0 mm 0 W/m2
02:24 20.8 °C 18.6 °C 1014.4 hPa Calm   3.2 km/h 87% 0 mm 0 W/m2
02:29 20.8 °C 18.6 °C 1014.1 hPa Calm   3.2 km/h 87% 0 mm 0 W/m2
02:34 20.8 °C 18.6 °C 1014.1 hPa Calm   3.2 km/h 87% 0 mm 0 W/m2
02:39 20.8 °C 18.6 °C 1014.1 hPa Calm     87% 0 mm 0 W/m2
02:44 20.8 °C 18.6 °C 1013.8 hPa Calm     87% 0 mm 0 W/m2
02:49 20.7 °C 18.5 °C 1013.8 hPa Calm     87% 0 mm 0 W/m2
02:54 20.7 °C 18.7 °C 1013.8 hPa Calm     88% 0 mm 0 W/m2
02:59 20.7 °C 18.7 °C 1013.8 hPa Calm     88% 0 mm 0 W/m2
03:04 20.7 °C 18.7 °C 1013.8 hPa Calm     88% 0 mm 0 W/m2
03:09 20.8 °C 18.7 °C 1013.8 hPa Calm     88% 0 mm 0 W/m2
03:14 20.8 °C 18.7 °C 1013.8 hPa Calm     88% 0 mm 0 W/m2
03:19 20.8 °C 18.7 °C 1013.8 hPa Calm     88% 0 mm 0 W/m2
03:24 20.8 °C 18.8 °C 1013.8 hPa Calm     88.5% 0 mm 0 W/m2
03:29 20.8 °C 18.9 °C 1013.8 hPa Calm     89% 0 mm 0 W/m2
03:34 20.8 °C 18.9 °C 1013.8 hPa Calm     89% 0 mm 0 W/m2
03:39 20.8 °C 18.9 °C 1013.4 hPa Calm     89% 0 mm 0 W/m2
03:44 20.8 °C 18.9 °C 1013.4 hPa Calm     89% 0 mm 0 W/m2
03:49 20.8 °C 18.9 °C 1013.4 hPa Calm     89% 0 mm 0 W/m2
03:54 20.8 °C 19 °C 1013.4 hPa Calm     89% 0 mm 0 W/m2
03:59 20.9 °C 19 °C 1013.4 hPa Calm     89% 0 mm 0 W/m2
04:09 20.9 °C 19.1 °C 1013.4 hPa Calm     89% 0 mm 0 W/m2
04:14 20.9 °C 19.1 °C 1013.4 hPa Calm     89% 0 mm 0 W/m2
04:19 21 °C 19.1 °C 1013.4 hPa Calm     89% 0 mm 0 W/m2
04:24 21 °C 19.1 °C 1013.1 hPa Calm     89% 0 mm 0 W/m2
04:29 21.1 °C 19.2 °C 1013.1 hPa Calm     89% 0 mm 0 W/m2
04:34 21.1 °C 19.2 °C 1013.1 hPa Calm     89% 0 mm 0 W/m2
04:39 21.1 °C 19.2 °C 1013.1 hPa Calm     89% 0 mm 0 W/m2
04:44 21.2 °C 19.3 °C 1013.1 hPa Calm     89% 0 mm 0 W/m2
04:49 21.2 °C 19.3 °C 1013.1 hPa Calm     89% 0 mm 0 W/m2
04:54 21.2 °C 19.4 °C 1013.4 hPa Calm     89.3% 0 mm 0 W/m2
04:59 21.2 °C 19.5 °C 1013.4 hPa Calm     90% 0 mm 0 W/m2
05:04 21.2 °C 19.6 °C 1013.4 hPa South 0.5 km/h 6.4 km/h 90% 0.25 mm 0 W/m2
05:09 21.3 °C 19.6 °C 1013.4 hPa SW 1.3 km/h 9.7 km/h 90% 0.51 mm 0 W/m2
05:14 21.1 °C 19.4 °C 1013.4 hPa West 3.1 km/h 17.7 km/h 90% 0.76 mm 0 W/m2
05:19 21 °C 19.3 °C 1013.4 hPa WSW 2.9 km/h 17.7 km/h 90% 0.76 mm 0 W/m2
05:24 20.9 °C 19.2 °C 1013.4 hPa WSW 0.6 km/h 17.7 km/h 90% 0.76 mm 0 W/m2
05:29 20.8 °C 19.1 °C 1013.4 hPa Calm   17.7 km/h 90% 0.76 mm 0 W/m2
05:34 20.7 °C 19 °C 1013.1 hPa Calm   17.7 km/h 90% 1.02 mm 0 W/m2
05:39 20.6 °C 18.9 °C 1013.1 hPa Calm     89.9% 1.02 mm 0 W/m2
05:44 20.4 °C 18.5 °C 1013.1 hPa Calm     89% 1.02 mm 0 W/m2
05:49 20.2 °C 18.3 °C 1013.1 hPa Calm     89% 1.02 mm 0 W/m2
05:54 20.1 °C 18.2 °C 1013.1 hPa Calm     89% 1.02 mm 0 W/m2
05:59 20.1 °C 18.2 °C 1013.1 hPa Calm     89% 1.02 mm 5 W/m2
06:04 20.1 °C 18.2 °C 1013.1 hPa Calm     89% 1.02 mm 7 W/m2
06:09 20.1 °C 18.2 °C 1013.1 hPa Calm     89% 1.02 mm 7 W/m2
06:14 20.1 °C 18.3 °C 1013.1 hPa Calm     89.9% 1.02 mm 5 W/m2
06:19 20 °C 18.3 °C 1013.1 hPa Calm     90% 1.02 mm 7 W/m2
06:24 20 °C 18.3 °C 1013.1 hPa Calm     90% 1.02 mm 11 W/m2
06:29 20 °C 18.3 °C 1013.1 hPa Calm     90% 1.02 mm 11 W/m2
06:34 19.9 °C 18.3 °C 1013.1 hPa Calm     90% 1.02 mm 7 W/m2
06:39 20 °C 18.4 °C 1013.1 hPa Calm     90.5% 0.25 mm 7 W/m2
06:44 20 °C 18.5 °C 1013.1 hPa Calm     91% 0.25 mm 5 W/m2
06:49 20 °C 18.5 °C 1013.1 hPa Calm     91% 0.25 mm 7 W/m2
06:54 20 °C 18.5 °C 1013.1 hPa Calm     91% 0.25 mm 9 W/m2
06:59 20 °C 18.5 °C 1013.1 hPa Calm     91% 0.51 mm 12 W/m2
07:04 19.9 °C 18.4 °C 1013.1 hPa Calm     91% 0.51 mm 11 W/m2
07:09 19.9 °C 18.6 °C 1013.1 hPa Calm     91.8% 0.25 mm 12 W/m2
07:14 20.1 °C 18.7 °C 1013.1 hPa Calm     92% 0.25 mm 26 W/m2
07:19 20 °C 18.7 °C 1013.1 hPa Calm     92% 0.25 mm 26 W/m2
07:24 19.9 °C 18.6 °C 1013.1 hPa SW 0.2 km/h 6.4 km/h 92% 0.25 mm 14 W/m2
07:29 19.9 °C 18.6 °C 1013.1 hPa Calm   6.4 km/h 92% 0.51 mm 12 W/m2
07:34 19.9 °C 18.6 °C 1013.1 hPa Calm   6.4 km/h 92% 0.51 mm 16 W/m2
07:39 19.9 °C 18.6 °C 1013.1 hPa WSW 0.3 km/h 4.8 km/h 92% 0.51 mm 18 W/m2
07:44 19.8 °C 18.5 °C 1013.1 hPa Calm   4.8 km/h 92% 0.51 mm 16 W/m2
07:49 19.8 °C 18.4 °C 1013.1 hPa Calm   4.8 km/h 91.4% 0.51 mm 23 W/m2
07:54 19.8 °C 18.3 °C 1013.1 hPa Calm   4.8 km/h 91.1% 0.51 mm 21 W/m2
07:59 19.7 °C 18.2 °C 1012.8 hPa WSW 0.3 km/h 4.8 km/h 91% 0.51 mm 28 W/m2
08:09 19.6 °C 18.1 °C 1012.8 hPa SW 0.2 km/h 4.8 km/h 91% 0.51 mm 33 W/m2
08:14 19.7 °C 18.2 °C 1012.8 hPa Calm   4.8 km/h 91% 0.51 mm 35 W/m2
08:19 19.7 °C 18.2 °C 1012.8 hPa Calm   4.8 km/h 91% 0.51 mm 42 W/m2
08:24 19.7 °C 18.2 °C 1012.8 hPa Calm   4.8 km/h 91% 0.51 mm 42 W/m2
08:29 19.7 °C 18.3 °C 1012.8 hPa Calm   4.8 km/h 91.6% 0.51 mm 33 W/m2
08:34 19.7 °C 18.4 °C 1012.8 hPa Calm   4.8 km/h 92% 0.51 mm 26 W/m2
08:39 19.7 °C 18.4 °C 1012.8 hPa WSW 0.2 km/h 4.8 km/h 92% 0.25 mm 40 W/m2
08:44 19.7 °C 18.4 °C 1012.8 hPa WSW 0.2 km/h 4.8 km/h 92% 0.25 mm 40 W/m2
08:49 19.7 °C 18.4 °C 1012.8 hPa Calm   4.8 km/h 92% 0.25 mm 47 W/m2
08:54 19.8 °C 18.4 °C 1012.8 hPa SW 0.2 km/h 4.8 km/h 92% 0.25 mm 49 W/m2
08:59 19.8 °C 18.4 °C 1012.8 hPa SSW 1.8 km/h 11.3 km/h 92% 0.25 mm 30 W/m2
09:04 19.8 °C 18.5 °C 1012.8 hPa SSW 1.8 km/h 11.3 km/h 92% 0.25 mm 23 W/m2
09:09 19.9 °C 18.6 °C 1012.8 hPa SSE 0.5 km/h 6.4 km/h 92% 0.51 mm 35 W/m2
09:14 19.8 °C 18.5 °C 1012.4 hPa SW 1.3 km/h 9.7 km/h 92% 0.51 mm 42 W/m2
09:19 19.8 °C 18.4 °C 1012.8 hPa SW 1.4 km/h 9.7 km/h 91.3% 0.51 mm 23 W/m2
09:24 19.8 °C 18.4 °C 1012.8 hPa SW 1 km/h 9.7 km/h 91.6% 0.51 mm 28 W/m2
09:29 19.8 °C 18.3 °C 1012.4 hPa SSW 1.3 km/h 9.7 km/h 91.1% 0.76 mm 28 W/m2
09:34 19.8 °C 18.3 °C 1012.4 hPa SSW 1.3 km/h 12.9 km/h 91% 1.02 mm 40 W/m2
09:39 19.8 °C 18.3 °C 1012.4 hPa Calm   12.9 km/h 91.4% 1.02 mm 49 W/m2
09:44 19.7 °C 18.4 °C 1012.4 hPa WSW 0.8 km/h 12.9 km/h 92% 1.02 mm 49 W/m2
09:49 19.7 °C 18.4 °C 1012.4 hPa South 1.8 km/h 12.9 km/h 92% 1.02 mm 141 W/m2
09:54 19.7 °C 18.4 °C 1012.1 hPa SSW 1.8 km/h 12.9 km/h 92% 1.02 mm 130 W/m2
09:59 19.8 °C 18.4 °C 1012.1 hPa SSW 2.4 km/h 12.9 km/h 92% 1.02 mm 88 W/m2
10:04 19.8 °C 18.4 °C 1012.1 hPa SSW 1.4 km/h 12.9 km/h 92% 1.02 mm 102 W/m2
10:09 19.8 °C 18.5 °C 1012.1 hPa SW 1.6 km/h 8 km/h 92% 0.76 mm 114 W/m2
10:14 20 °C 18.7 °C 1012.1 hPa SW 1.4 km/h 8 km/h 92% 0.76 mm 230 W/m2
10:19 20.2 °C 18.8 °C 1012.1 hPa South 1.8 km/h 8 km/h 92.1% 0.76 mm 274 W/m2
10:24 20.3 °C 19 °C 1012.4 hPa South 1.9 km/h 9.7 km/h 92% 0.76 mm 181 W/m2
10:29 20.5 °C 19.1 °C 1012.4 hPa SW 2.1 km/h 9.7 km/h 91.5% 0.76 mm 156 W/m2
10:34 20.6 °C 19.1 °C 1012.8 hPa SW 0.3 km/h 9.7 km/h 91% 0.76 mm 79 W/m2
10:39 20.7 °C 19.1 °C 1012.4 hPa SW 1 km/h 4.8 km/h 90.4% 0.25 mm 83 W/m2
10:44 20.7 °C 18.9 °C 1012.4 hPa SW 0.2 km/h 4.8 km/h 90% 0.25 mm 77 W/m2
10:49 20.7 °C 19 °C 1012.8 hPa SW 0.5 km/h 6.4 km/h 90% 0.25 mm 77 W/m2
10:54 20.7 °C 19.1 °C 1012.8 hPa SW 0.2 km/h 6.4 km/h 90% 0.25 mm 60 W/m2
10:59 20.7 °C 19.1 °C 1012.8 hPa Calm   6.4 km/h 90% 0.25 mm 56 W/m2
11:04 20.7 °C 18.8 °C 1012.8 hPa Calm   6.4 km/h 89.2% 0.25 mm 70 W/m2
11:09 20.7 °C 18.9 °C 1012.8 hPa SW 0.2 km/h 3.2 km/h 89.5% 0 mm 72 W/m2
11:14 20.6 °C 18.8 °C 1012.4 hPa Calm   3.2 km/h 89% 0 mm 69 W/m2
11:19 20.6 °C 18.7 °C 1012.4 hPa Calm   3.2 km/h 89% 0 mm 76 W/m2
11:24 20.6 °C 18.8 °C 1012.4 hPa Calm   3.2 km/h 89% 0 mm 79 W/m2
11:29 20.7 °C 18.9 °C 1012.4 hPa SW 0.2 km/h 3.2 km/h 89.7% 0 mm 67 W/m2
11:34 20.7 °C 18.9 °C 1012.4 hPa Calm   3.2 km/h 89% 0 mm 65 W/m2
11:39 20.8 °C 18.9 °C 1012.4 hPa Calm   1.6 km/h 89% 0 mm 58 W/m2
11:44 20.8 °C 18.9 °C 1012.4 hPa SW 0.2 km/h 6.4 km/h 89% 0 mm 58 W/m2
11:49 20.8 °C 18.9 °C 1012.4 hPa Calm   6.4 km/h 89% 0 mm 53 W/m2
11:54 20.9 °C 19 °C 1012.4 hPa Calm   6.4 km/h 89% 0 mm 40 W/m2
11:59 20.9 °C 19.1 °C 1012.4 hPa Calm   6.4 km/h 89% 0 mm 47 W/m2
12:00 20.9 °C 19.1 °C 1012.1 hPa Calm   6.4 km/h 89% 0 mm 44 W/m2
12:09 20.9 °C 19.1 °C 1012.1 hPa SW 0.3 km/h 4.8 km/h 89% 0 mm 54 W/m2
12:14 21 °C 19.1 °C 1012.1 hPa Calm   4.8 km/h 89% 0 mm 69 W/m2
12:19 21.1 °C 19.2 °C 1012.1 hPa SSW 0.8 km/h 8 km/h 89% 0 mm 128 W/m2
12:24 21.1 °C 19.2 °C 1011.7 hPa SSW 0.2 km/h 8 km/h 89% 0 mm 193 W/m2
12:29 21.2 °C 19.4 °C 1011.7 hPa South 0.2 km/h 8 km/h 89% 0 mm 160 W/m2
12:34 21.4 °C 19.6 °C 1011.7 hPa Calm   8 km/h 89.1% 0 mm 207 W/m2
12:39 21.6 °C 19.7 °C 1011.7 hPa SSW 1.1 km/h 4.8 km/h 89% 0 mm 207 W/m2
12:44 21.7 °C 19.6 °C 1011.7 hPa Calm   4.8 km/h 88% 0 mm 195 W/m2
12:49 21.8 °C 19.7 °C 1011.7 hPa Calm   4.8 km/h 88% 0 mm 183 W/m2
12:54 21.9 °C 19.9 °C 1011.4 hPa SSW 0.2 km/h 6.4 km/h 88% 0 mm 156 W/m2
12:59 22.1 °C 20 °C 1011.7 hPa SSW 0.2 km/h 6.4 km/h 88% 0 mm 190 W/m2
13:04 22.2 °C 20.1 °C 1011.7 hPa SSW 0.5 km/h 6.4 km/h 88% 0 mm 223 W/m2
13:09 22.3 °C 20.1 °C 1011.4 hPa Calm   6.4 km/h 87.7% 0 mm 223 W/m2
13:14 22.4 °C 20.2 °C 1011.4 hPa SW 0.3 km/h 6.4 km/h 87.1% 0 mm 281 W/m2
13:19 22.6 °C 20.3 °C 1011.4 hPa SSW 0.2 km/h 6.4 km/h 87% 0 mm 230 W/m2
13:24 22.7 °C 20.4 °C 1011.1 hPa South 1.1 km/h 9.7 km/h 86.8% 0 mm 267 W/m2
13:29 22.8 °C 20.4 °C 1011.1 hPa SW 0.3 km/h 9.7 km/h 86.4% 0 mm 299 W/m2
13:34 22.9 °C 20.7 °C 1011.1 hPa WSW 1.8 km/h 14.5 km/h 86.9% 0 mm 204 W/m2
13:39 23.1 °C 20.6 °C 1011.1 hPa South 2.1 km/h 16.1 km/h 86% 0 mm 202 W/m2
13:44 23.1 °C 20.6 °C 1011.1 hPa South 0.2 km/h 16.1 km/h 85.7% 0 mm 325 W/m2
13:49 23.2 °C 20.7 °C 1011.1 hPa South 0.6 km/h 16.1 km/h 86.2% 0 mm 313 W/m2
13:54 23.3 °C 20.8 °C 1011.1 hPa SW 0.6 km/h 16.1 km/h 86.2% 0 mm 248 W/m2
13:59 23.3 °C 20.9 °C 1011.1 hPa Calm   16.1 km/h 86% 0 mm 195 W/m2
14:04 23.4 °C 20.9 °C 1011.1 hPa South 0.6 km/h 16.1 km/h 86% 0 mm 165 W/m2
14:09 23.4 °C 20.9 °C 1011.1 hPa South 0.2 km/h 3.2 km/h 86% 0 mm 128 W/m2
14:14 23.5 °C 21.1 °C 1011.1 hPa SW 1.6 km/h 9.7 km/h 86.3% 0 mm 151 W/m2
14:19 23.6 °C 21.1 °C 1011.1 hPa SW 1.4 km/h 9.7 km/h 86% 0 mm 160 W/m2
14:24 23.6 °C 21.2 °C 1011.1 hPa WSW 1 km/h 11.3 km/h 86% 0 mm 160 W/m2
14:29 23.7 °C 21.3 °C 1011.1 hPa Calm   11.3 km/h 86.4% 0 mm 172 W/m2
14:34 23.8 °C 21.4 °C 1010.7 hPa SW 0.8 km/h 11.3 km/h 86.7% 0 mm 172 W/m2
14:39 23.8 °C 21.4 °C 1010.7 hPa SW 1.3 km/h 9.7 km/h 86.6% 0 mm 128 W/m2
14:44 23.9 °C 21.4 °C 1010.7 hPa SSW 1.1 km/h 9.7 km/h 86% 0 mm 137 W/m2
14:49 23.9 °C 21.4 °C 1010.7 hPa SW 0.8 km/h 9.7 km/h 86% 0 mm 178 W/m2
14:54 23.9 °C 21.5 °C 1010.7 hPa WSW 1.4 km/h 9.7 km/h 86% 0 mm 197 W/m2
14:59 24.1 °C 21.6 °C 1010.7 hPa West 0.2 km/h 9.7 km/h 86% 0 mm 178 W/m2
15:04 24.1 °C 21.6 °C 1010.7 hPa West 0.5 km/h 9.7 km/h 86% 0 mm 260 W/m2
15:09 24.2 °C 21.8 °C 1010.7 hPa West 0.2 km/h 6.4 km/h 86.6% 0 mm 315 W/m2
15:14 24.4 °C 22.1 °C 1010.4 hPa West 0.6 km/h 9.7 km/h 86.8% 0 mm 411 W/m2
15:19 24.7 °C 22.2 °C 1010.4 hPa WSW 0.5 km/h 9.7 km/h 86.3% 0 mm 411 W/m2
15:24 24.9 °C 22.3 °C 1010.4 hPa WSW 0.2 km/h 9.7 km/h 85.3% 0 mm 378 W/m2
15:29 25.1 °C 22.1 °C 1010.4 hPa SW 0.5 km/h 9.7 km/h 83.2% 0 mm 378 W/m2
15:34 25.2 °C 21.9 °C 1010.4 hPa SW 0.3 km/h 9.7 km/h 82.4% 0 mm 316 W/m2
15:39 25.2 °C 21.9 °C 1010.4 hPa Calm   4.8 km/h 82% 0 mm 325 W/m2
15:44 25.3 °C 22.1 °C 1010.4 hPa SW 0.2 km/h 4.8 km/h 82.4% 0 mm 207 W/m2
15:49 25.3 °C 22.1 °C 1010.4 hPa Calm   4.8 km/h 82.3% 0 mm 158 W/m2
15:54 25.3 °C 22.1 °C 1010 hPa Calm   4.8 km/h 82.4% 0 mm 91 W/m2
15:59 25.3 °C 22.2 °C 1010 hPa Calm   4.8 km/h 82.6% 0 mm 90 W/m2
16:00 25.3 °C 22.2 °C 1010 hPa Calm   4.8 km/h 83% 0 mm 88 W/m2
16:09 25.3 °C 22.2 °C 1010 hPa Calm     82.7% 0 mm 130 W/m2
16:14 25.3 °C 22 °C 1010 hPa Calm     82% 0 mm 200 W/m2
16:19 25.3 °C 22.2 °C 1010 hPa Calm   3.2 km/h 82.6% 0 mm 255 W/m2
16:24 25.4 °C 22.2 °C 1010 hPa SW 0.2 km/h 3.2 km/h 82.1% 0 mm 206 W/m2
16:29 25.6 °C 22.3 °C 1010 hPa SW 0.2 km/h 3.2 km/h 82% 0 mm 179 W/m2
16:34 25.7 °C 22.3 °C 1010 hPa SW 0.8 km/h 9.7 km/h 81.6% 0 mm 257 W/m2
16:39 25.9 °C 22.4 °C 1010 hPa SW 0.6 km/h 9.7 km/h 81% 0 mm 264 W/m2
16:44 26.1 °C 22.5 °C 1010 hPa SW 0.3 km/h 9.7 km/h 80.5% 0 mm 244 W/m2
16:49 26.3 °C 22.6 °C 1010 hPa SW 1 km/h 9.7 km/h 80% 0 mm 221 W/m2
16:54 26.4 °C 22.7 °C 1009.7 hPa SW 0.2 km/h 9.7 km/h 80% 0 mm 190 W/m2
16:59 26.4 °C 22.7 °C 1009.7 hPa Calm   9.7 km/h 80% 0 mm 190 W/m2
17:04 26.4 °C 22.7 °C 1009.7 hPa Calm   9.7 km/h 80% 0 mm 181 W/m2
17:09 26.4 °C 22.6 °C 1009.7 hPa Calm   1.6 km/h 79.3% 0 mm 165 W/m2
17:14 26.4 °C 22.4 °C 1009.7 hPa Calm   1.6 km/h 79% 0 mm 190 W/m2
17:19 26.4 °C 22.6 °C 1009.4 hPa Calm   1.6 km/h 79.6% 0 mm 104 W/m2
17:24 26.4 °C 22.6 °C 1009.4 hPa Calm   1.6 km/h 79.9% 0 mm 130 W/m2
17:29 26.4 °C 22.4 °C 1009.4 hPa SW 0.2 km/h 3.2 km/h 79% 0 mm 156 W/m2
17:34 26.4 °C 22.3 °C 1009.4 hPa Calm   3.2 km/h 78.2% 0 mm 158 W/m2
17:39 26.5 °C 22.3 °C 1009.4 hPa SW 0.2 km/h 4.8 km/h 78% 0 mm 111 W/m2
17:44 26.6 °C 22.6 °C 1009.4 hPa Calm   4.8 km/h 78.9% 0 mm 111 W/m2
17:49 26.5 °C 22.4 °C 1009.4 hPa Calm   4.8 km/h 78% 0 mm 118 W/m2
17:54 26.4 °C 22.5 °C 1009.4 hPa Calm   4.8 km/h 78.8% 0 mm 93 W/m2
17:59 26.4 °C 22.5 °C 1009.4 hPa Calm   4.8 km/h 79% 0 mm 105 W/m2
18:04 26.4 °C 22.4 °C 1009 hPa Calm   4.8 km/h 79% 0 mm 69 W/m2
18:09 26.4 °C 22.5 °C 1009 hPa Calm   1.6 km/h 79.3% 0 mm 60 W/m2
18:14 26.3 °C 22.6 °C 1009 hPa Calm   1.6 km/h 80% 0 mm 56 W/m2
18:19 26.3 °C 22.6 °C 1009.4 hPa Calm   1.6 km/h 80% 0 mm 51 W/m2
18:24 26.3 °C 22.6 °C 1009.4 hPa SW 0.2 km/h 4.8 km/h 80% 0 mm 46 W/m2
18:29 26.2 °C 22.5 °C 1009 hPa Calm   4.8 km/h 80% 0 mm 44 W/m2
18:34 26.2 °C 22.6 °C 1009 hPa SW 0.2 km/h 4.8 km/h 80.8% 0 mm 42 W/m2
18:39 26.2 °C 22.6 °C 1009 hPa Calm   4.8 km/h 80.5% 0 mm 39 W/m2
18:44 26.2 °C 22.6 °C 1009 hPa Calm   4.8 km/h 81% 0 mm 35 W/m2
18:49 26.1 °C 22.6 °C 1009 hPa Calm   4.8 km/h 81% 0 mm 35 W/m2
18:54 26.1 °C 22.6 °C 1009 hPa Calm   4.8 km/h 81% 0 mm 33 W/m2
18:59 26.1 °C 22.6 °C 1009 hPa SW 0.2 km/h 4.8 km/h 81% 0 mm 33 W/m2
19:04 26 °C 22.5 °C 1009 hPa Calm   4.8 km/h 81% 0 mm 32 W/m2
19:09 26 °C 22.5 °C 1009 hPa Calm     81% 0 mm 28 W/m2
19:14 25.9 °C 22.4 °C 1008.7 hPa Calm     81% 0 mm 26 W/m2
19:19 25.9 °C 22.4 °C 1009 hPa Calm     81.1% 0 mm 23 W/m2
19:24 25.9 °C 22.6 °C 1009 hPa Calm     82% 0 mm 21 W/m2
19:29 25.8 °C 22.5 °C 1009.4 hPa Calm     82% 0 mm 19 W/m2
19:34 25.8 °C 22.4 °C 1009.4 hPa Calm     82% 0 mm 18 W/m2
19:39 25.7 °C 22.4 °C 1009 hPa Calm     82% 0 mm 16 W/m2
19:44 25.6 °C 22.3 °C 1009 hPa Calm     82% 0 mm 12 W/m2
19:49 25.6 °C 22.4 °C 1009.4 hPa Calm     82.9% 0 mm 11 W/m2
19:54 25.4 °C 22.3 °C 1009.7 hPa Calm     83% 0 mm 9 W/m2
19:59 25.4 °C 22.3 °C 1009.7 hPa Calm     83% 0 mm 7 W/m2
20:00 25.3 °C 22.2 °C 1009.7 hPa Calm     83% 0 mm 5 W/m2
20:09 25.2 °C 22.3 °C 1009.7 hPa Calm   1.6 km/h 84% 0 mm 0 W/m2
20:14 25.1 °C 22.2 °C 1009.7 hPa Calm   1.6 km/h 84% 0 mm 0 W/m2
20:19 25 °C 22.2 °C 1009.7 hPa Calm   1.6 km/h 84.5% 0 mm 0 W/m2
20:24 24.9 °C 22.2 °C 1009.7 hPa Calm   1.6 km/h 85% 0 mm 0 W/m2
20:29 24.8 °C 22.2 °C 1009.7 hPa Calm   1.6 km/h 85% 0 mm 0 W/m2
20:34 24.8 °C 22.2 °C 1009.7 hPa Calm   1.6 km/h 85.4% 0 mm 0 W/m2
20:39 24.7 °C 22.2 °C 1009.7 hPa Calm     86% 0 mm 0 W/m2
20:44 24.6 °C 22.1 °C 1009.7 hPa Calm     86% 0 mm 0 W/m2
20:49 24.5 °C 22 °C 1009.7 hPa Calm     86% 0 mm 0 W/m2
20:54 24.4 °C 22 °C 1009.7 hPa Calm     86.4% 0 mm 0 W/m2
20:59 24.3 °C 22.1 °C 1010 hPa Calm     87% 0 mm 0 W/m2
21:04 24.3 °C 22 °C 1009.7 hPa Calm     87% 0 mm 0 W/m2
21:09 24.2 °C 21.9 °C 1009.7 hPa Calm     87% 0 mm 0 W/m2
21:14 24.2 °C 22 °C 1010 hPa Calm     87.7% 0 mm 0 W/m2
21:19 24.1 °C 21.8 °C 1010 hPa Calm     87.3% 0 mm 0 W/m2
21:24 24.1 °C 21.9 °C 1010 hPa Calm     88% 0 mm 0 W/m2
21:29 23.9 °C 21.8 °C 1010 hPa Calm     88% 0 mm 0 W/m2
21:34 23.9 °C 21.8 °C 1010 hPa Calm     88% 0 mm 0 W/m2
21:39 23.8 °C 21.7 °C 1010 hPa Calm     88.2% 0 mm 0 W/m2
21:44 23.7 °C 21.8 °C 1010.4 hPa Calm     88.8% 0 mm 0 W/m2
21:49 23.7 °C 21.8 °C 1010 hPa Calm     89% 0 mm 0 W/m2
21:54 23.6 °C 21.7 °C 1010 hPa Calm     89% 0 mm 0 W/m2
21:59 23.6 °C 21.6 °C 1010 hPa Calm     89% 0 mm 0 W/m2
22:04 23.5 °C 21.7 °C 1010 hPa Calm     89.6% 0 mm 0 W/m2
22:09 23.5 °C 21.7 °C 1010 hPa Calm     90% 0 mm 0 W/m2
22:14 23.4 °C 21.7 °C 1010 hPa Calm     90% 0 mm 0 W/m2
22:19 23.4 °C 21.7 °C 1010 hPa Calm     90% 0 mm 0 W/m2
22:24 23.4 °C 21.6 °C 1009.7 hPa Calm     90% 0 mm 0 W/m2
22:29 23.3 °C 21.6 °C 1009.7 hPa Calm     90% 0 mm 0 W/m2
22:34 23.3 °C 21.6 °C 1009.7 hPa Calm     90% 0 mm 0 W/m2
22:39 23.3 °C 21.6 °C 1010 hPa Calm     90% 0 mm 0 W/m2
22:44 23.2 °C 21.5 °C 1010 hPa Calm     90% 0 mm 0 W/m2
22:49 23.2 °C 21.4 °C 1010 hPa Calm     90% 0 mm 0 W/m2
22:54 23.2 °C 21.6 °C 1010 hPa Calm     90.9% 0 mm 0 W/m2
22:59 23.1 °C 21.5 °C 1010 hPa Calm     91% 0 mm 0 W/m2
23:04 23 °C 21.5 °C 1010 hPa Calm     91% 0 mm 0 W/m2
23:09 22.9 °C 21.3 °C 1010 hPa Calm     90.2% 0 mm 0 W/m2
23:14 22.9 °C 21.3 °C 1010 hPa Calm     90.9% 0 mm 0 W/m2
23:19 22.8 °C 21.3 °C 1010 hPa Calm     91% 0 mm 0 W/m2
23:24 22.8 °C 21.2 °C 1010 hPa Calm     91% 0 mm 0 W/m2
23:29 22.7 °C 21.2 °C 1010 hPa Calm     91% 0 mm 0 W/m2
23:34 22.7 °C 21.1 °C 1010.4 hPa Calm     91% 0 mm 0 W/m2
23:39 22.6 °C 21.1 °C 1010 hPa Calm     91.1% 0 mm 0 W/m2
23:44 22.6 °C 21.1 °C 1010 hPa Calm     91.2% 0 mm 0 W/m2
23:49 22.6 °C 21.2 °C 1010 hPa Calm     92% 0 mm 0 W/m2
23:54 22.5 °C 21.2 °C 1010 hPa Calm     92% 0 mm 0 W/m2
23:59 22.5 °C 21.1 °C 1010 hPa Calm     92% 0 mm 0 W/m2
Hartford County Weather
Compliments of Weather Underground - 4 mb